Milton Grove, Pennsylvania
Current Conditions -  °F | °C
As of 12:38 PM on Wednesday 26 Nov 2014 (Local Time) from KLNS Reporting Station
Light Snow Light Snow  
Wind Chill: 23°   Ceiling: 400
Heat Index: 33°   Visibility: 0.75mi
Dew Point: 31°   Wind: 14mph
Humidity: 92%   Direction: 50°NE
Pressure: 29.97"   Gusts: NA
Location:  40.1077°N, 76.5054°W
Report Text: KLNS 261738Z 05012KT 3/4SM -SN BR BKN004 OVC014 01/M01 A2997 RMK AO2 P0007 T00061006
Loading
Personal Weather Stations






























Interactive Weather Map New forecast layout! Learn more

10-Day Weather Forecast

Advertisements
Track Severe Weather on mobile